Byromville, Georgia
Current Conditions -  °F | °C
As of 5:15 PM on Saturday 25 Oct 2014 (Local Time) from KACJ Reporting Station
Clear Clear  
Wind Chill: 77°   Ceiling: Unl
Heat Index: 78°   Visibility: 10mi
Dew Point: 43°   Wind: 5mph
Humidity: 29%   Direction: 320°NW
Pressure: 30.01"   Gusts: NA
Location:  32.2°N, 83.91°W
Report Text: KACJ 252115Z AUTO 32004KT 10SM CLR 25/06 A3001 RMK AO2
Loading
Personal Weather Stations






























Interactive Weather Map
Tropical Storm Tracking
New forecast layout! Learn more

10-Day Weather Forecast

Advertisements
Track Severe Weather on mobile